Time;durP1;ratioP1;P1;durP2;ratioP2;P2;SDS_P1;SDS_P2;PMS_P1;PMS_P2;Temp;Humidity;BMP_temperature;BMP_pressure;BME280_temperature;BME280_humidity;BME280_pressure;Samples;Min_cycle;Max_cycle;Signal;HPM_P1;HPM_P2
2021/01/31 00:00:27;;;;;;;13.63;8.13;;;;;;;1.36;70.27;99019.22;5010995;28;20050;-60
2021/01/31 00:02:55;;;;;;;12.13;8.18;;;;;;;1.34;69.67;99022.22;5012700;28;20050;-60
2021/01/31 00:05:23;;;;;;;11.88;8.13;;;;;;;1.36;69.80;99021.94;5012606;28;20054;-61
2021/01/31 00:07:53;;;;;;;12.55;8.50;;;;;;;1.32;69.86;99023.63;5012603;28;20058;-59
2021/01/31 00:10:22;;;;;;;12.55;8.48;;;;;;;1.26;69.89;99020.16;5012823;28;20407;-60
2021/01/31 00:12:49;;;;;;;13.93;8.55;;;;;;;1.25;70.38;99021.22;5013158;28;20060;-60
2021/01/31 00:15:20;;;;;;;13.40;8.70;;;;;;;1.24;69.79;99021.50;4998647;28;20056;-61
2021/01/31 00:17:47;;;;;;;12.77;9.13;;;;;;;1.22;69.82;99021.81;4992813;28;20065;-60
2021/01/31 00:20:17;;;;;;;11.30;7.90;;;;;;;1.19;70.04;99034.16;4992650;28;20174;-61
2021/01/31 00:22:44;;;;;;;13.38;8.63;;;;;;;1.14;69.96;99027.94;4998856;28;20495;-60
2021/01/31 00:25:12;;;;;;;11.98;8.57;;;;;;;1.13;70.37;99034.50;4996570;28;20054;-60
2021/01/31 00:27:39;;;;;;;12.57;8.48;;;;;;;1.11;70.51;99037.53;4993403;28;20053;-61
2021/01/31 00:30:11;;;;;;;11.15;7.82;;;;;;;1.13;70.30;99029.84;4993100;28;20069;-60
2021/01/31 00:32:39;;;;;;;12.82;8.25;;;;;;;1.12;70.02;99044.66;4992984;28;20059;-60
2021/01/31 00:35:08;;;;;;;11.40;7.72;;;;;;;1.10;70.32;99033.16;4992967;28;20443;-60
2021/01/31 00:37:37;;;;;;;13.02;8.30;;;;;;;1.10;70.39;99041.38;4992970;28;20388;-60
2021/01/31 00:40:05;;;;;;;10.13;7.72;;;;;;;1.09;70.58;99044.41;4993699;28;20062;-57
2021/01/31 00:42:34;;;;;;;11.93;8.43;;;;;;;1.06;69.89;99045.00;4992673;28;20492;-60
2021/01/31 00:45:04;;;;;;;12.33;8.47;;;;;;;1.03;70.00;99051.88;4992736;28;20059;-60
2021/01/31 00:47:30;;;;;;;13.13;8.17;;;;;;;1.00;70.27;99041.47;4992951;28;20408;-61
2021/01/31 00:50:00;;;;;;;11.63;7.70;;;;;;;0.99;70.61;99046.13;4992654;28;20061;-61
2021/01/31 00:52:27;;;;;;;11.98;7.85;;;;;;;1.00;70.50;99050.50;4992333;28;20065;-60
2021/01/31 00:54:54;;;;;;;11.95;7.97;;;;;;;0.97;70.45;99051.09;4993176;28;20061;-60
2021/01/31 00:57:21;;;;;;;12.52;8.23;;;;;;;0.95;70.34;99055.22;4992686;28;20054;-60
2021/01/31 00:59:48;;;;;;;11.55;8.18;;;;;;;0.94;70.61;99064.53;4992676;28;20062;-61
2021/01/31 01:02:17;;;;;;;12.27;8.32;;;;;;;0.92;70.12;99066.75;4993653;28;20055;-61
2021/01/31 01:04:44;;;;;;;11.70;7.55;;;;;;;0.91;70.26;99070.59;4995896;28;20078;-61
2021/01/31 01:07:12;;;;;;;13.20;8.63;;;;;;;0.88;70.40;99077.47;4996188;28;20476;-61
2021/01/31 01:09:39;;;;;;;10.77;7.75;;;;;;;0.89;70.40;99081.03;4996304;28;20479;-59
2021/01/31 01:12:07;;;;;;;11.63;7.95;;;;;;;0.84;70.47;99083.78;4996335;28;20062;-60
2021/01/31 01:14:34;;;;;;;10.95;7.72;;;;;;;0.81;70.44;99072.31;4995788;28;20050;-60
2021/01/31 01:17:02;;;;;;;11.93;7.65;;;;;;;0.76;70.26;99077.81;4996095;28;20050;-61
2021/01/31 01:19:31;;;;;;;12.77;8.18;;;;;;;0.74;71.00;99073.75;4996453;28;20054;-59
2021/01/31 01:21:58;;;;;;;11.10;7.55;;;;;;;0.66;70.69;99075.16;4996513;28;20050;-59
2021/01/31 01:24:26;;;;;;;12.52;8.25;;;;;;;0.64;70.52;99077.34;5002841;28;20050;-59
2021/01/31 01:26:57;;;;;;;13.15;8.40;;;;;;;0.62;71.19;99070.53;5015980;28;20050;-60
2021/01/31 01:29:24;;;;;;;11.65;8.23;;;;;;;0.57;70.63;99071.38;5015941;28;20053;-60
2021/01/31 01:31:51;;;;;;;11.88;7.93;;;;;;;0.56;71.17;99083.41;5015542;28;20053;-60
2021/01/31 01:34:18;;;;;;;14.23;8.85;;;;;;;0.60;71.92;99081.75;5015503;28;20054;-60
2021/01/31 01:36:45;;;;;;;14.00;8.70;;;;;;;0.65;72.03;99079.00;5015121;28;20064;-60
2021/01/31 01:39:12;;;;;;;11.82;8.35;;;;;;;0.65;72.13;99073.53;5006767;28;20417;-58
2021/01/31 01:41:42;;;;;;;12.32;8.18;;;;;;;0.70;71.94;99070.75;4995326;28;20058;-60
2021/01/31 01:44:09;;;;;;;11.02;7.40;;;;;;;0.73;72.54;99075.63;4996020;28;20050;-59
2021/01/31 01:46:42;;;;;;;12.38;7.93;;;;;;;0.73;72.21;99075.63;4995420;28;20070;-60
2021/01/31 01:49:19;;;;;;;12.48;7.53;;;;;;;0.75;71.83;99078.09;4995711;28;20057;-60
2021/01/31 01:51:50;;;;;;;11.88;8.05;;;;;;;0.76;72.10;99075.09;4995532;28;20061;-60
2021/01/31 01:54:24;;;;;;;12.93;8.32;;;;;;;0.76;72.02;99077.81;5004354;28;20398;-60
2021/01/31 01:56:57;;;;;;;13.25;8.13;;;;;;;0.72;71.87;99074.00;5014781;28;20057;-60
2021/01/31 01:59:24;;;;;;;10.88;7.82;;;;;;;0.75;71.97;99072.63;5015149;28;20057;-60
2021/01/31 02:02:02;;;;;;;12.00;7.72;;;;;;;0.77;72.02;99078.63;5014761;28;20403;-59
2021/01/31 02:04:30;;;;;;;11.90;7.50;;;;;;;0.73;71.62;99081.13;5014271;28;20062;-60
2021/01/31 02:06:57;;;;;;;11.68;8.00;;;;;;;0.75;71.68;99084.41;5014597;28;20054;-60
2021/01/31 02:09:23;;;;;;;11.95;7.75;;;;;;;0.74;71.98;99084.69;5000119;28;20054;-60
2021/01/31 02:11:54;;;;;;;12.98;7.88;;;;;;;0.70;71.29;99081.69;4995201;28;20065;-59
2021/01/31 02:14:23;;;;;;;11.75;7.57;;;;;;;0.66;72.22;99088.03;4994393;28;20057;-59
2021/01/31 02:16:55;;;;;;;10.93;7.63;;;;;;;0.64;72.05;99084.75;4994814;28;20051;-57
2021/01/31 02:20:08;;;;;;;10.80;7.22;;;;;;;0.64;71.73;99088.31;4995121;28;20109;-60
2021/01/31 02:23:11;;;;;;;10.75;7.22;;;;;;;0.61;71.21;99086.16;4993442;28;20488;-60
2021/01/31 02:25:52;;;;;;;12.10;7.95;;;;;;;0.55;72.07;99092.75;4973826;28;20439;-55
2021/01/31 02:28:47;;;;;;;11.73;7.82;;;;;;;0.48;71.61;99084.00;4994919;28;20053;-59
2021/01/31 02:31:50;;;;;;;11.65;7.25;;;;;;;0.46;71.96;99075.25;4992679;28;20403;-59
2021/01/31 02:34:25;;;;;;;12.82;7.55;;;;;;;0.43;72.05;99084.88;4994865;28;20054;-59
2021/01/31 02:37:04;;;;;;;14.35;8.20;;;;;;;0.40;72.10;99089.00;4994994;28;20055;-59
2021/01/31 02:39:40;;;;;;;11.63;7.60;;;;;;;0.35;71.28;99094.47;5006328;28;20046;-60
2021/01/31 02:42:17;;;;;;;12.55;7.93;;;;;;;0.31;71.82;99087.13;5014643;28;20053;-58
2021/01/31 02:44:53;;;;;;;12.38;8.48;;;;;;;0.23;71.87;99096.72;5014070;28;20064;-59
2021/01/31 02:47:23;;;;;;;12.80;7.50;;;;;;;0.16;71.71;99094.28;5000802;28;20492;-59
2021/01/31 02:49:52;;;;;;;;;;;;;;;0.11;72.52;99091.56;4996168;28;20061;-59
2021/01/31 02:52:23;;;;;;;13.15;8.07;;;;;;;0.03;72.02;99088.59;4994242;28;19929;-59
2021/01/31 02:54:54;;;;;;;12.30;7.85;;;;;;;-0.01;72.25;99093.81;4994307;28;20065;-58
2021/01/31 02:57:28;;;;;;;13.93;8.10;;;;;;;-0.03;72.21;99085.88;4993653;28;20046;-59
2021/01/31 03:00:04;;;;;;;12.95;8.45;;;;;;;-0.07;72.35;99073.84;4994885;28;20054;-59
2021/01/31 03:02:37;;;;;;;13.50;8.40;;;;;;;-0.13;72.44;99076.88;5010776;28;20058;-59
2021/01/31 03:05:08;;;;;;;14.30;8.80;;;;;;;-0.15;72.50;99076.31;5013857;28;20069;-59
2021/01/31 03:07:43;;;;;;;13.23;8.23;;;;;;;-0.20;72.50;99079.91;5013577;28;20408;-58
2021/01/31 03:10:13;;;;;;;12.65;8.05;;;;;;;-0.21;72.49;99078.25;5013301;28;20054;-59
2021/01/31 03:12:47;;;;;;;12.73;8.13;;;;;;;-0.26;72.63;99081.00;5013393;28;20050;-57
2021/01/31 03:15:19;;;;;;;11.02;7.38;;;;;;;-0.30;72.26;99079.94;5012952;28;20053;-58
2021/01/31 03:17:53;;;;;;;11.55;7.93;;;;;;;-0.31;72.32;99083.78;5013575;28;20047;-60
2021/01/31 03:20:24;;;;;;;11.02;7.43;;;;;;;-0.30;71.99;99082.66;5013136;28;20521;-59
2021/01/31 03:22:56;;;;;;;13.38;8.02;;;;;;;-0.32;71.88;99082.13;5013290;28;20068;-60
2021/01/31 03:25:30;;;;;;;12.13;7.93;;;;;;;-0.32;71.83;99085.66;4996774;28;20482;-59
2021/01/31 03:27:56;;;;;;;14.13;7.95;;;;;;;-0.34;71.96;99090.59;4993848;28;20054;-59
2021/01/31 03:30:23;;;;;;;12.43;8.18;;;;;;;-0.34;71.86;99090.59;4993413;28;20058;-59
2021/01/31 03:32:54;;;;;;;13.48;8.02;;;;;;;-0.37;71.64;99082.16;4993275;28;20065;-59
2021/01/31 03:35:27;;;;;;;12.48;7.75;;;;;;;-0.41;71.75;99079.94;4993912;28;20081;-58
2021/01/31 03:38:03;;;;;;;13.43;9.35;;;;;;;-0.41;71.73;99090.06;4993087;28;20046;-58
2021/01/31 03:40:30;;;;;;;13.35;8.45;;;;;;;-0.45;72.25;99089.78;5004530;28;20062;-58
2021/01/31 03:42:57;;;;;;;15.82;8.52;;;;;;;-0.53;72.07;99089.53;4993190;28;20061;-57
2021/01/31 03:45:30;;;;;;;14.75;8.95;;;;;;;-0.58;72.21;99090.38;4993594;28;20062;-58
2021/01/31 03:48:02;;;;;;;16.75;8.75;;;;;;;-0.61;72.33;99090.91;4993738;28;20054;-58
2021/01/31 03:50:33;;;;;;;16.60;9.65;;;;;;;-0.63;72.47;99082.16;4993997;28;20054;-56
2021/01/31 03:53:00;;;;;;;14.73;9.02;;;;;;;-0.65;72.70;99079.72;4991923;28;20077;-57
2021/01/31 03:55:28;;;;;;;14.05;8.38;;;;;;;-0.67;72.35;99075.63;4974023;28;20065;-55
2021/01/31 03:57:59;;;;;;;16.25;9.38;;;;;;;-0.71;72.71;99071.81;4973661;28;20058;-58
2021/01/31 04:00:29;;;;;;;16.40;9.65;;;;;;;-0.75;72.67;99073.44;4974864;28;20058;-59
2021/01/31 04:03:01;;;;;;;14.68;9.10;;;;;;;-0.83;72.58;99072.06;4973830;28;20062;-59
2021/01/31 04:05:33;;;;;;;14.82;9.13;;;;;;;-0.92;72.53;99071.81;4973892;28;20412;-58
2021/01/31 04:08:05;;;;;;;15.13;8.95;;;;;;;-0.96;73.04;99081.63;4973308;28;20400;-58
2021/01/31 04:10:32;;;;;;;16.17;9.32;;;;;;;-1.00;73.27;99083.28;4974333;28;20066;-58
2021/01/31 04:13:01;;;;;;;15.38;9.25;;;;;;;-1.05;73.13;99083.25;4974273;28;20061;-59
2021/01/31 04:15:42;;;;;;;15.15;9.05;;;;;;;-1.14;73.29;99084.91;4974734;28;20058;-58
2021/01/31 04:18:08;;;;;;;;;;;;;;;-1.13;73.88;99083.81;4974957;28;20050;-58
2021/01/31 04:20:38;;;;;;;17.25;10.02;;;;;;;-1.17;73.83;99078.06;4974132;28;19922;-58
2021/01/31 04:23:05;;;;;;;;;;;;;;;-1.18;74.21;99084.59;4979750;28;20065;-59
2021/01/31 04:25:33;;;;;;;17.52;10.02;;;;;;;-1.27;74.02;99088.97;4975812;28;19922;-57
2021/01/31 04:28:08;;;;;;;20.88;12.13;;;;;;;-1.28;74.13;99090.91;4993278;28;20407;-58
2021/01/31 04:30:39;;;;;;;20.75;11.63;;;;;;;-1.29;74.07;99094.69;4993531;28;20057;-59
2021/01/31 04:33:07;;;;;;;22.02;11.60;;;;;;;-1.29;74.29;99100.16;4993406;28;20064;-57
2021/01/31 04:35:34;;;;;;;20.65;11.48;;;;;;;-1.31;74.10;99099.63;4993676;28;20055;-58
2021/01/31 04:38:08;;;;;;;18.38;11.50;;;;;;;-1.31;74.34;99107.81;4993859;28;20054;-57
2021/01/31 04:40:36;;;;;;;18.85;10.85;;;;;;;-1.33;74.42;99107.25;4993794;28;20047;-57
2021/01/31 04:43:06;;;;;;;20.05;10.48;;;;;;;-1.35;74.25;99109.44;4977808;28;20062;-57
2021/01/31 04:45:34;;;;;;;17.73;9.88;;;;;;;-1.38;74.31;99111.91;4977677;28;20057;-57
2021/01/31 04:48:15;;;;;;;18.25;10.25;;;;;;;-1.43;74.57;99104.50;4977724;28;20473;-58
2021/01/31 04:50:55;;;;;;;17.92;10.05;;;;;;;-1.48;74.37;99107.22;4977666;28;20058;-59
2021/01/31 04:53:40;;;;;;;15.68;9.48;;;;;;;-1.54;74.01;99108.31;4977530;28;20058;-57
2021/01/31 04:56:21;;;;;;;16.45;9.35;;;;;;;-1.60;74.00;99098.44;4957983;29;20051;-58
2021/01/31 04:58:49;;;;;;;17.65;9.18;;;;;;;-1.67;73.89;99104.97;4957729;29;20059;-56
2021/01/31 05:01:22;;;;;;;16.27;9.75;;;;;;;-1.71;74.18;99097.59;4965678;28;20057;-57
2021/01/31 05:03:55;;;;;;;18.50;10.13;;;;;;;-1.76;74.08;99103.06;4977337;28;20062;-58
2021/01/31 05:06:25;;;;;;;18.42;10.40;;;;;;;-1.83;73.68;99103.28;4977097;28;20058;-58
2021/01/31 05:08:53;;;;;;;17.95;10.18;;;;;;;-1.88;74.24;99097.81;4976920;28;20063;-58
2021/01/31 05:11:28;;;;;;;17.55;10.23;;;;;;;-1.90;74.09;99108.16;4977017;28;20051;-57
2021/01/31 05:14:05;;;;;;;20.05;11.02;;;;;;;-1.91;74.50;99098.31;4976428;28;20153;-58
2021/01/31 05:16:32;;;;;;;17.70;10.05;;;;;;;-1.90;74.22;99108.16;4986818;28;20061;-57
2021/01/31 05:19:01;;;;;;;18.00;10.30;;;;;;;-1.92;74.26;99113.06;4996372;28;20050;-57
2021/01/31 05:21:32;;;;;;;19.83;10.10;;;;;;;-1.93;74.37;99116.88;4996239;28;20058;-58
2021/01/31 05:24:03;;;;;;;17.63;10.10;;;;;;;-1.95;73.74;99116.31;4990718;28;20057;-56
2021/01/31 05:26:36;;;;;;;20.80;10.73;;;;;;;-1.94;74.10;99117.97;4976408;28;20399;-56
2021/01/31 05:29:06;;;;;;;19.70;10.50;;;;;;;-1.97;74.30;99124.78;4976371;28;20059;-54
2021/01/31 05:31:36;;;;;;;19.70;10.52;;;;;;;-1.99;74.40;99126.16;4976348;28;20058;-54
2021/01/31 05:34:04;;;;;;;19.35;11.02;;;;;;;-2.00;74.23;99129.94;4976078;28;20054;-58
2021/01/31 05:36:33;;;;;;;19.77;10.88;;;;;;;-2.04;74.68;99124.19;4976494;28;20356;-57
2021/01/31 05:39:02;;;;;;;19.42;10.52;;;;;;;-2.07;74.71;99125.53;4983548;28;20046;-58
2021/01/31 05:41:47;;;;;;;19.17;10.73;;;;;;;-2.07;74.89;99122.00;5011378;28;20088;-56
2021/01/31 05:44:30;;;;;;;17.67;10.25;;;;;;;-2.09;74.63;99133.16;5015361;28;20050;-57
2021/01/31 05:46:59;;;;;;;18.55;10.27;;;;;;;-2.14;74.51;99140.50;5014961;28;20050;-58
2021/01/31 05:49:39;;;;;;;21.55;11.10;;;;;;;-2.12;74.61;99138.31;5015087;28;20062;-58
2021/01/31 05:52:27;;;;;;;19.60;10.88;;;;;;;-2.14;74.72;99135.03;5015088;28;20457;-59
2021/01/31 05:54:56;;;;;;;20.33;10.45;;;;;;;-2.18;75.20;99134.75;4998447;28;20058;-57
2021/01/31 05:57:26;;;;;;;20.05;10.27;;;;;;;-2.20;75.20;99136.94;4995331;28;20423;-57
2021/01/31 05:59:54;;;;;;;18.77;10.70;;;;;;;-2.22;74.70;99132.84;4995296;28;20055;-59
2021/01/31 06:02:24;;;;;;;18.85;10.40;;;;;;;-2.25;74.66;99128.69;4995126;28;20411;-58
2021/01/31 06:05:13;;;;;;;18.20;10.10;;;;;;;-2.27;74.68;99130.88;4994848;28;20058;-59
2021/01/31 06:07:42;;;;;;;17.90;10.38;;;;;;;-2.29;74.83;99136.59;4995897;28;20050;-55
2021/01/31 06:10:13;;;;;;;21.13;10.45;;;;;;;-2.33;75.08;99121.84;4994904;28;20058;-58
2021/01/31 06:12:41;;;;;;;19.17;10.95;;;;;;;-2.33;75.07;99129.19;5010741;28;20050;-58
2021/01/31 06:15:18;;;;;;;19.25;10.55;;;;;;;-2.33;75.21;99132.75;4999434;28;20054;-57
2021/01/31 06:17:54;;;;;;;18.65;10.23;;;;;;;-2.34;75.47;99135.75;4995189;28;20082;-54
2021/01/31 06:20:30;;;;;;;18.02;10.18;;;;;;;-2.35;75.38;99132.19;4995153;28;20061;-54
2021/01/31 06:22:58;;;;;;;18.70;10.43;;;;;;;-2.39;75.26;99132.97;4995668;28;20488;-55
2021/01/31 06:25:38;;;;;;;18.88;10.73;;;;;;;-2.44;75.18;99141.94;4995994;28;20488;-58
2021/01/31 06:28:22;;;;;;;18.40;11.23;;;;;;;-2.46;75.29;99138.66;5012353;28;20830;-55
2021/01/31 06:31:00;;;;;;;19.88;11.55;;;;;;;-2.49;75.83;99141.91;5014189;28;20410;-55
2021/01/31 06:33:27;;;;;;;20.48;10.70;;;;;;;-2.53;75.54;99138.88;5014192;28;20057;-54
2021/01/31 06:36:06;;;;;;;20.10;11.45;;;;;;;-2.53;76.17;99143.50;5014178;28;20062;-58
2021/01/31 06:38:42;;;;;;;19.27;11.20;;;;;;;-2.57;76.51;99142.41;5014513;28;20050;-55
2021/01/31 06:41:18;;;;;;;18.20;11.00;;;;;;;-2.49;76.56;99148.19;4996628;28;20066;-55
2021/01/31 06:44:00;;;;;;;22.52;10.75;;;;;;;-2.40;76.13;99140.34;4975014;28;20065;-55
2021/01/31 06:46:36;;;;;;;19.52;10.88;;;;;;;-2.33;75.60;99143.66;4974762;28;20054;-58
2021/01/31 06:49:13;;;;;;;20.90;11.07;;;;;;;-2.25;75.91;99140.44;4974804;28;20050;-58
2021/01/31 06:51:57;;;;;;;18.98;11.07;;;;;;;-2.20;75.18;99150.56;4974490;28;20051;-58
2021/01/31 06:55:00;;;;;;;21.58;12.20;;;;;;;-2.19;74.86;99152.19;4976091;28;20062;-58
2021/01/31 06:57:57;;;;;;;23.70;12.10;;;;;;;-2.19;74.12;99143.19;4974686;28;20051;-58
2021/01/31 07:01:03;;;;;;;23.35;12.48;;;;;;;-2.18;74.37;99156.59;4974460;28;20063;-59
2021/01/31 07:04:03;;;;;;;19.95;11.70;;;;;;;-2.15;74.43;99155.22;4974629;28;20055;-57
2021/01/31 07:06:48;;;;;;;19.05;11.98;;;;;;;-2.10;73.81;99164.28;4968401;28;20061;-59
2021/01/31 07:09:38;;;;;;;20.95;11.18;;;;;;;-2.04;74.08;99154.19;4974558;28;20497;-58
2021/01/31 07:12:10;;;;;;;;;;;;;;;-2.03;73.95;99155.03;4975269;28;20492;-55
2021/01/31 07:14:58;;;;;;;17.42;10.38;;;;;;;-2.00;73.58;99157.22;4974700;28;19922;-55
2021/01/31 07:17:39;;;;;;;20.98;10.57;;;;;;;-2.07;73.08;99150.09;4974105;28;20057;-56
2021/01/31 07:20:11;;;;;;;18.42;10.05;;;;;;;-2.01;72.95;99144.69;4974853;28;20054;-58
2021/01/31 07:22:42;;;;;;;20.00;10.80;;;;;;;-2.02;74.46;99141.09;4974591;28;20070;-57
2021/01/31 07:25:16;;;;;;;18.92;10.73;;;;;;;-1.89;75.52;99148.00;4974664;28;20058;-57
2021/01/31 07:27:48;;;;;;;16.75;9.88;;;;;;;-1.79;74.89;99139.88;4974315;28;20057;-59
2021/01/31 07:30:25;;;;;;;16.95;10.40;;;;;;;-1.70;74.39;99141.00;4973891;28;20061;-58
2021/01/31 07:33:10;;;;;;;14.25;8.80;;;;;;;-1.56;74.25;99151.44;4981804;28;20050;-59
2021/01/31 07:35:45;;;;;;;14.48;8.50;;;;;;;-1.46;74.37;99151.47;4990886;28;20384;-59
2021/01/31 07:38:20;;;;;;;16.27;9.35;;;;;;;-1.38;73.71;99152.88;4982743;28;20059;-59
2021/01/31 07:40:53;;;;;;;15.63;9.13;;;;;;;-1.19;73.26;99155.94;4984235;28;20411;-59
2021/01/31 07:43:24;;;;;;;15.68;8.98;;;;;;;-0.92;72.66;99150.25;4993553;28;20054;-58
2021/01/31 07:45:58;;;;;;;14.48;9.10;;;;;;;-1.02;70.97;99157.31;4992753;28;20397;-58
2021/01/31 07:48:58;;;;;;;16.65;9.23;;;;;;;-1.01;70.35;99152.66;4996962;28;20047;-59
2021/01/31 07:52:02;;;;;;;13.07;8.23;;;;;;;-1.01;69.82;99141.72;4987304;28;20077;-58
2021/01/31 07:54:33;;;;;;;15.38;9.35;;;;;;;-1.04;69.75;99142.28;4987508;28;20053;-58
2021/01/31 07:57:27;;;;;;;18.17;10.18;;;;;;;-1.13;68.83;99154.84;4993171;28;20384;-59
2021/01/31 07:59:55;;;;;;;19.30;10.32;;;;;;;-1.22;69.01;99146.34;4993457;28;20065;-59
2021/01/31 08:02:40;;;;;;;17.40;9.98;;;;;;;-1.21;69.06;99147.19;4994080;28;20062;-59
2021/01/31 08:05:10;;;;;;;15.25;9.35;;;;;;;-1.24;69.13;99143.06;4992999;28;20105;-59
2021/01/31 08:07:59;;;;;;;15.60;9.88;;;;;;;-1.17;69.17;99145.56;4992051;28;20054;-59
2021/01/31 08:10:45;;;;;;;16.95;9.60;;;;;;;0.03;65.08;99137.88;4993404;28;20061;-59
2021/01/31 08:13:33;;;;;;;16.38;9.60;;;;;;;1.14;63.28;99129.41;4992890;28;20102;-59
2021/01/31 08:16:01;;;;;;;12.82;7.95;;;;;;;2.20;60.79;99118.50;4983259;28;20057;-59
2021/01/31 08:18:28;;;;;;;13.00;8.38;;;;;;;2.99;58.17;99122.72;5007441;28;20521;-58
2021/01/31 08:20:56;;;;;;;9.77;7.00;;;;;;;4.43;54.17;99113.59;4991382;28;20050;-58
2021/01/31 08:23:54;;;;;;;10.98;7.68;;;;;;;7.28;45.66;99111.13;4992257;28;20065;-58
2021/01/31 08:26:47;;;;;;;8.93;6.05;;;;;;;9.35;41.31;99095.13;4996047;28;20054;-58
2021/01/31 08:29:29;;;;;;;9.50;7.50;;;;;;;10.95;36.57;99087.03;4993949;28;20050;-58
2021/01/31 08:32:09;;;;;;;9.55;7.43;;;;;;;11.38;35.84;99086.34;4990150;28;20054;-57
2021/01/31 08:34:53;;;;;;;;;;;;;;;12.04;34.52;99086.97;4997334;28;20054;-59
2021/01/31 08:37:28;;;;;;;19.20;14.18;;;;;;;13.58;33.10;99098.97;4977722;28;19929;-60
2021/01/31 08:39:56;;;;;;;19.48;14.88;;;;;;;14.54;30.24;99099.16;4988803;28;20530;-60
2021/01/31 08:42:23;;;;;;;21.00;15.95;;;;;;;15.48;28.37;99089.34;4990444;28;20057;-60
2021/01/31 08:44:56;;;;;;;15.25;12.77;;;;;;;16.20;27.33;99091.75;4988681;28;20496;-59
2021/01/31 08:47:23;;;;;;;12.20;10.52;;;;;;;16.98;26.02;99088.00;4989821;28;20391;-60
2021/01/31 08:50:02;;;;;;;12.27;9.35;;;;;;;17.56;25.36;99089.13;4986876;28;20050;-60
2021/01/31 08:52:32;;;;;;;11.90;10.18;;;;;;;18.39;23.83;99086.56;4989796;28;20514;-60
2021/01/31 08:55:05;;;;;;;12.65;10.32;;;;;;;19.01;23.36;99086.16;4989932;28;20081;-60
2021/01/31 08:57:33;;;;;;;41.03;34.38;;;;;;;19.69;22.06;99090.78;4987749;28;20053;-59
2021/01/31 09:00:11;;;;;;;33.65;30.05;;;;;;;20.56;21.30;99074.94;4989981;28;20050;-60
2021/01/31 09:02:43;;;;;;;28.25;25.30;;;;;;;21.41;20.72;99078.16;4991866;28;20050;-60
2021/01/31 09:05:14;;;;;;;23.73;21.23;;;;;;;21.96;19.59;99078.34;4991983;28;21457;-60
2021/01/31 09:07:45;;;;;;;23.15;20.77;;;;;;;22.25;19.04;99075.91;4989949;28;20380;-60
2021/01/31 09:10:34;;;;;;;15.63;14.13;;;;;;;22.65;18.42;99081.78;4990310;28;20054;-60
2021/01/31 09:13:17;;;;;;;14.00;12.23;;;;;;;23.01;18.36;99084.03;4990961;28;20050;-60
2021/01/31 09:15:44;;;;;;;23.90;21.58;;;;;;;23.37;17.73;99078.50;4989679;28;20126;-61
2021/01/31 09:18:17;;;;;;;19.75;17.83;;;;;;;22.47;18.26;99091.38;4989709;28;20054;-60
2021/01/31 09:20:47;;;;;;;12.77;11.23;;;;;;;22.59;18.58;99092.00;4990218;28;20057;-61
2021/01/31 09:23:17;;;;;;;;;;;;;;;22.70;18.70;99087.78;4990035;28;20064;-61
2021/01/31 09:25:44;;;;;;;25.52;23.05;;;;;;;23.81;17.02;99089.78;4990539;28;20252;-61
2021/01/31 09:28:19;;;;;;;12.35;11.05;;;;;;;24.34;17.90;99087.00;4989678;28;20055;-61
2021/01/31 09:30:47;;;;;;;12.30;11.00;;;;;;;24.11;17.36;99094.44;4994706;28;20046;-63
2021/01/31 09:33:22;;;;;;;8.65;7.68;;;;;;;24.17;17.95;99094.69;5005483;28;20065;-63
2021/01/31 09:35:49;;;;;;;10.70;9.68;;;;;;;23.97;16.88;99100.44;4989587;28;20056;-63
2021/01/31 09:38:23;;;;;;;8.00;7.28;;;;;;;24.17;16.60;99094.69;5000680;28;20089;-62
2021/01/31 09:40:53;;;;;;;10.65;9.63;;;;;;;24.62;16.24;99102.63;5014152;28;20069;-62
2021/01/31 09:43:24;;;;;;;9.25;8.35;;;;;;;24.75;16.44;99108.41;5015138;28;20046;-63
2021/01/31 09:45:54;;;;;;;17.35;12.90;;;;;;;25.59;16.27;99103.75;5014987;28;20057;-62
2021/01/31 09:48:23;;;;;;;;;;;;;;;25.88;16.38;99100.88;4999234;28;20047;-62
2021/01/31 09:50:57;;;;;;;8.27;7.47;;;;;;;27.16;16.05;99099.31;4995837;28;19936;-62
2021/01/31 09:53:39;;;;;;;8.77;7.57;;;;;;;27.90;14.79;99112.97;4995691;28;20076;-62
2021/01/31 09:56:09;;;;;;;10.27;8.32;;;;;;;26.22;14.82;99110.88;4991061;28;20054;-62
2021/01/31 09:58:47;;;;;;;10.50;8.50;;;;;;;24.85;15.59;99104.50;4994545;28;20149;-62
2021/01/31 10:01:23;;;;;;;13.90;10.40;;;;;;;25.06;16.70;99106.00;4985660;28;20054;-62
2021/01/31 10:03:57;;;;;;;10.88;8.00;;;;;;;25.70;15.56;99090.00;4993193;28;20390;-63
2021/01/31 10:06:24;;;;;;;7.00;6.30;;;;;;;26.53;13.93;99087.50;4994200;28;20055;-63
2021/01/31 10:08:58;;;;;;;7.50;6.75;;;;;;;27.15;13.80;99081.34;4990746;28;20492;-63
2021/01/31 10:11:31;;;;;;;7.28;6.68;;;;;;;28.21;13.06;99077.84;4993539;28;20484;-64
2021/01/31 10:13:58;;;;;;;10.50;8.80;;;;;;;28.67;12.76;99085.88;4991600;28;20059;-64
2021/01/31 10:16:28;;;;;;;9.75;8.20;;;;;;;29.38;11.90;99079.16;4994176;28;20054;-64
2021/01/31 10:19:05;;;;;;;9.52;8.52;;;;;;;29.06;12.39;99078.47;4993983;28;20062;-63
2021/01/31 10:21:35;;;;;;;8.18;7.38;;;;;;;29.56;12.66;99084.06;4990719;28;20050;-64
2021/01/31 10:24:18;;;;;;;8.45;7.70;;;;;;;29.91;12.64;99086.63;4981111;28;20054;-64
2021/01/31 10:26:45;;;;;;;8.32;7.53;;;;;;;30.10;12.16;99078.75;4992307;28;20054;-64
2021/01/31 10:29:21;;;;;;;8.65;7.85;;;;;;;29.11;14.56;99088.53;4994147;28;20504;-64
2021/01/31 10:31:50;;;;;;;9.07;8.18;;;;;;;27.62;13.59;99076.84;4990935;28;20058;-64
2021/01/31 10:34:41;;;;;;;8.73;7.90;;;;;;;25.91;16.16;99080.03;4998509;28;20054;-64
2021/01/31 10:37:13;;;;;;;9.45;8.45;;;;;;;26.24;15.32;99076.19;4996799;28;20514;-64
2021/01/31 10:39:41;;;;;;;9.43;8.52;;;;;;;26.44;14.41;99067.41;4991872;28;20080;-64
2021/01/31 10:42:08;;;;;;;9.77;8.77;;;;;;;26.06;15.24;99073.88;4992401;28;20058;-64
2021/01/31 10:44:36;;;;;;;9.43;8.52;;;;;;;26.87;14.26;99066.00;4990625;28;20054;-64
2021/01/31 10:47:05;;;;;;;9.40;8.50;;;;;;;27.97;13.09;99060.41;4993688;28;20058;-64
2021/01/31 10:49:32;;;;;;;9.73;8.73;;;;;;;28.50;13.28;99059.56;4993874;28;20046;-64
2021/01/31 10:51:59;;;;;;;10.82;9.82;;;;;;;29.53;12.31;99050.63;4994267;28;20050;-64
2021/01/31 10:54:26;;;;;;;8.15;7.45;;;;;;;29.54;11.62;99046.47;4996172;28;20502;-64
2021/01/31 10:56:54;;;;;;;7.38;6.68;;;;;;;30.77;11.22;99048.00;4991672;28;20081;-64
2021/01/31 10:59:21;;;;;;;6.47;5.88;;;;;;;28.83;11.88;99047.53;4991516;28;20073;-65
2021/01/31 11:01:49;;;;;;;7.95;7.25;;;;;;;28.68;11.82;99030.94;5000545;28;20395;-64
2021/01/31 11:04:17;;;;;;;7.85;7.15;;;;;;;28.31;12.31;99039.41;4991869;28;20484;-64
2021/01/31 11:06:44;;;;;;;8.45;7.75;;;;;;;29.09;12.16;99034.50;4994682;28;20050;-64
2021/01/31 11:09:12;;;;;;;7.63;6.93;;;;;;;28.17;11.80;99022.81;4995761;28;20128;-64
2021/01/31 11:11:39;;;;;;;7.75;6.95;;;;;;;28.34;12.24;99029.84;4996420;28;20050;-64
2021/01/31 11:14:08;;;;;;;8.25;7.45;;;;;;;28.48;11.97;99022.75;4991205;28;20057;-64
2021/01/31 11:16:34;;;;;;;8.57;7.87;;;;;;;28.54;12.25;99017.22;4993534;28;20070;-64
2021/01/31 11:19:01;;;;;;;9.93;9.13;;;;;;;28.42;12.08;99018.13;4994045;28;20043;-64
2021/01/31 11:21:28;;;;;;;9.38;8.57;;;;;;;26.78;12.92;99011.63;4992739;28;20043;-64
2021/01/31 11:23:55;;;;;;;12.43;11.35;;;;;;;28.43;12.19;99002.50;4993443;28;20050;-64
2021/01/31 11:26:23;;;;;;;10.18;9.20;;;;;;;28.53;11.96;98999.22;4992502;28;20058;-64
2021/01/31 11:28:50;;;;;;;12.20;11.30;;;;;;;28.09;12.28;99005.09;4994178;28;20077;-64
2021/01/31 11:31:23;;;;;;;11.27;10.30;;;;;;;28.47;12.56;98989.63;4990855;28;20050;-63
2021/01/31 11:33:51;;;;;;;14.23;13.13;;;;;;;27.31;13.17;98991.78;4991143;28;20061;-63
2021/01/31 11:36:18;;;;;;;13.82;12.73;;;;;;;27.83;12.69;98992.25;4993982;28;20077;-63
2021/01/31 11:38:46;;;;;;;15.35;14.25;;;;;;;27.01;13.18;98981.84;4992975;28;20054;-63
2021/01/31 11:41:13;;;;;;;15.02;13.93;;;;;;;26.65;13.77;98974.53;4993402;28;20069;-63
2021/01/31 11:43:40;;;;;;;13.15;12.15;;;;;;;27.33;13.47;98972.88;4991448;28;20050;-63
2021/01/31 11:46:07;;;;;;;13.27;12.27;;;;;;;27.26;13.40;98966.66;4993519;28;20066;-63
2021/01/31 11:48:34;;;;;;;11.20;10.20;;;;;;;26.32;14.43;98969.88;4988969;28;20057;-63
2021/01/31 11:51:02;;;;;;;9.63;8.75;;;;;;;25.69;14.61;98960.06;4990639;28;20542;-64
2021/01/31 11:53:28;;;;;;;8.68;7.88;;;;;;;24.57;15.92;98969.34;4993360;28;20472;-63